createdAt,value
2023-05-23T00:19:11.938Z,12.83
2023-05-23T00:24:13.649Z,11.80
2023-05-23T01:02:21.647Z,10.30
2023-05-23T01:07:33.541Z,11.47
2023-05-23T01:12:46.673Z,10.20
2023-05-23T01:18:10.229Z,10.23
2023-05-23T01:23:27.512Z,8.90
2023-05-23T01:28:43.346Z,10.37
2023-05-23T01:33:46.758Z,8.53
2023-05-23T01:38:48.694Z,9.50
2023-05-23T01:43:50.738Z,9.47
2023-05-23T01:48:52.896Z,9.93
2023-05-23T01:53:54.911Z,10.27
2023-05-23T01:58:56.854Z,10.50
2023-05-23T02:03:58.654Z,10.13
2023-05-23T02:09:00.533Z,10.10
2023-05-23T02:14:02.654Z,8.80
2023-05-23T02:19:07.099Z,8.67
2023-05-23T02:24:08.940Z,8.17
2023-05-23T02:29:10.769Z,8.40
2023-05-23T02:34:12.656Z,7.87
2023-05-23T02:39:14.847Z,8.83
2023-05-23T02:44:19.868Z,8.63
2023-05-23T02:49:21.683Z,9.43
2023-05-23T02:54:27.736Z,9.90
2023-05-23T02:59:29.836Z,9.53
2023-05-23T03:10:48.339Z,9.90
2023-05-23T03:15:50.167Z,9.90
2023-05-23T03:20:51.956Z,9.73
2023-05-23T03:25:53.776Z,11.47
2023-05-23T03:30:55.626Z,10.80
2023-05-23T03:35:57.736Z,10.57
2023-05-23T03:40:59.555Z,9.70
2023-05-23T03:46:01.419Z,11.40
2023-05-23T03:51:03.459Z,12.37
2023-05-23T03:56:05.602Z,12.50
2023-05-23T04:01:07.613Z,13.63
2023-05-23T04:06:11.080Z,13.90
2023-05-23T04:11:14.657Z,13.33
2023-05-23T04:16:16.796Z,14.03
2023-05-23T04:21:18.725Z,13.43
2023-05-23T04:26:20.707Z,14.37
2023-05-23T04:31:22.480Z,15.03
2023-05-23T04:36:25.775Z,14.37
2023-05-23T04:41:28.214Z,14.17
2023-05-23T04:46:30.235Z,14.17
2023-05-23T04:51:32.095Z,15.40
2023-05-23T04:56:33.888Z,14.20
2023-05-23T05:01:41.665Z,14.20
2023-05-23T05:07:21.922Z,26.23
2023-05-23T05:12:26.348Z,13.03
2023-05-23T05:17:31.521Z,12.70
2023-05-23T05:22:33.722Z,13.50
2023-05-23T05:27:38.373Z,12.27
2023-05-23T05:32:40.758Z,13.80
2023-05-23T05:37:45.923Z,15.20
2023-05-23T05:42:50.555Z,15.13
2023-05-23T05:47:58.312Z,16.60
2023-05-23T05:53:01.585Z,17.00
2023-05-23T05:58:14.294Z,17.27
2023-05-23T06:03:16.625Z,16.80
2023-05-23T06:08:44.423Z,15.23
2023-05-23T06:19:12.051Z,15.87
2023-05-23T06:24:20.676Z,16.10
2023-05-23T06:29:28.201Z,16.20
2023-05-23T06:34:41.684Z,13.67
2023-05-23T06:39:43.607Z,14.27
2023-05-23T06:44:48.461Z,15.47
2023-05-23T06:49:50.691Z,12.80
2023-05-23T06:54:52.599Z,12.83
2023-05-23T06:59:57.275Z,10.13
2023-05-23T07:05:07.072Z,10.20
2023-05-23T07:10:11.880Z,9.00
2023-05-23T07:15:18.204Z,4.07
2023-05-23T07:20:22.101Z,3.57
2023-05-23T07:25:26.704Z,3.30
2023-05-23T07:30:43.199Z,3.23
2023-05-23T07:36:07.838Z,3.10
2023-05-23T07:41:11.884Z,3.63
2023-05-23T07:46:15.818Z,2.80
2023-05-23T07:51:20.325Z,3.03
2023-05-23T07:56:24.812Z,3.17
2023-05-23T08:01:26.709Z,3.03
2023-05-23T08:06:31.433Z,3.60
2023-05-23T08:11:33.541Z,3.17
2023-05-23T08:16:36.211Z,3.90
2023-05-23T08:21:39.363Z,4.10
2023-05-23T08:26:42.086Z,4.47
2023-05-23T08:31:43.902Z,5.13
2023-05-23T08:36:45.925Z,5.87
2023-05-23T08:41:48.700Z,5.17
2023-05-23T08:46:53.786Z,4.97
2023-05-23T08:52:00.168Z,4.37
2023-05-23T08:57:03.505Z,4.23
2023-05-23T09:02:08.779Z,4.50
2023-05-23T09:07:14.584Z,4.00
2023-05-23T09:12:16.738Z,4.10
2023-05-23T09:17:20.403Z,4.60
2023-05-23T09:22:28.125Z,4.37
2023-05-23T09:27:31.308Z,4.47
2023-05-23T09:32:33.218Z,4.47
2023-05-23T09:37:38.037Z,4.33
2023-05-23T09:42:49.027Z,5.10
2023-05-23T09:47:54.423Z,4.03
2023-05-23T09:52:56.181Z,5.43
2023-05-23T09:57:59.563Z,5.23
2023-05-23T10:03:14.969Z,6.10
2023-05-23T10:08:33.606Z,4.97
2023-05-23T10:13:35.721Z,5.97
2023-05-23T10:18:44.244Z,5.77
2023-05-23T10:23:48.269Z,5.83
2023-05-23T10:28:50.519Z,6.13
2023-05-23T10:33:56.937Z,5.37
2023-05-23T10:39:22.715Z,6.73
2023-05-23T10:44:29.583Z,5.87
2023-05-23T10:49:47.589Z,5.63
2023-05-23T10:54:50.963Z,5.67
2023-05-23T10:59:53.093Z,5.00
2023-05-23T11:05:23.630Z,4.70
2023-05-23T11:10:27.129Z,4.60
2023-05-23T11:15:29.178Z,4.80
2023-05-23T11:20:31.407Z,5.03
2023-05-23T11:25:45.299Z,4.83
2023-05-23T11:30:51.324Z,4.67
2023-05-23T11:35:53.667Z,4.93
2023-05-23T11:40:56.056Z,3.60
2023-05-23T11:45:58.315Z,4.90
2023-05-23T11:51:00.416Z,3.83
2023-05-23T11:56:03.277Z,3.63
2023-05-23T12:01:07.229Z,4.67
2023-05-23T12:06:14.153Z,4.23
2023-05-23T12:11:16.328Z,4.00
2023-05-23T12:16:18.312Z,4.47
2023-05-23T12:21:27.394Z,5.30
2023-05-23T12:26:29.660Z,3.70
2023-05-23T12:31:31.613Z,4.43
2023-05-23T12:36:48.618Z,4.20
2023-05-23T12:41:51.585Z,4.63
2023-05-23T12:46:54.844Z,3.13
2023-05-23T12:51:56.973Z,3.60
2023-05-23T12:56:58.696Z,4.03
2023-05-23T13:02:01.748Z,3.83
2023-05-23T13:07:03.963Z,3.50
2023-05-23T13:12:07.032Z,3.67
2023-05-23T13:17:10.305Z,4.40
2023-05-23T13:22:12.254Z,3.67
2023-05-23T13:27:14.625Z,4.73
2023-05-23T13:32:16.466Z,4.37
2023-05-23T13:37:23.547Z,3.73
2023-05-23T13:42:25.745Z,3.40
2023-05-23T13:52:43.472Z,3.97
2023-05-23T13:57:46.830Z,3.17
2023-05-23T14:02:48.637Z,4.03
2023-05-23T14:07:50.454Z,3.57
2023-05-23T14:12:52.341Z,3.83
2023-05-23T14:17:57.581Z,3.43
2023-05-23T14:22:59.395Z,3.20
2023-05-23T14:28:01.194Z,3.50
2023-05-23T14:33:03.196Z,3.37
2023-05-23T14:38:05.056Z,3.40
2023-05-23T14:43:06.824Z,3.77
2023-05-23T14:48:10.180Z,3.30
2023-05-23T14:53:13.523Z,3.87
2023-05-23T14:58:15.691Z,3.53
2023-05-23T15:03:17.906Z,3.13
2023-05-23T15:08:19.951Z,2.77
2023-05-23T15:13:22.026Z,2.53
2023-05-23T15:18:38.767Z,3.33
2023-05-23T15:23:41.634Z,3.50
2023-05-23T15:28:46.146Z,3.97
2023-05-23T15:33:48.116Z,4.10
2023-05-23T15:38:51.652Z,3.17
2023-05-23T15:43:53.803Z,2.73
2023-05-23T15:49:05.079Z,2.97
2023-05-23T15:54:15.578Z,3.60
2023-05-23T15:59:19.439Z,2.60
2023-05-23T16:04:23.654Z,1.97
2023-05-23T16:09:25.843Z,3.70
2023-05-23T16:14:30.162Z,2.30
2023-05-23T16:19:32.065Z,3.30
2023-05-23T16:24:34.041Z,2.80
2023-05-23T16:37:03.884Z,3.33
2023-05-23T16:42:08.421Z,3.03
2023-05-23T16:47:11.371Z,3.05
2023-05-23T16:52:21.929Z,3.17
2023-05-23T16:57:32.531Z,3.20
2023-05-23T17:02:39.179Z,2.80
2023-05-23T17:07:40.950Z,3.43
2023-05-23T17:12:42.838Z,2.95
2023-05-23T17:17:48.666Z,3.60
2023-05-23T17:22:55.005Z,3.33
2023-05-23T17:27:57.290Z,3.40
2023-05-23T17:33:01.935Z,3.17
2023-05-23T17:43:32.568Z,3.40
2023-05-23T17:48:47.230Z,2.55
2023-05-23T17:53:53.518Z,2.63
2023-05-23T17:58:57.888Z,2.40
2023-05-23T18:04:02.456Z,2.75
2023-05-23T18:09:07.749Z,5.97
2023-05-23T18:14:09.612Z,2.97
2023-05-23T18:19:11.461Z,2.50
2023-05-23T18:24:13.473Z,2.83
2023-05-23T18:41:46.168Z,2.83
2023-05-23T18:46:49.365Z,2.80
2023-05-23T18:51:51.782Z,3.33
2023-05-23T18:56:55.596Z,3.05
2023-05-23T19:01:59.273Z,2.60
2023-05-23T19:12:24.585Z,3.17
2023-05-23T19:23:48.551Z,3.30
2023-05-23T19:28:54.096Z,3.43
2023-05-23T19:33:57.901Z,3.20
2023-05-23T19:39:00.358Z,3.07
2023-05-23T19:44:41.207Z,11.02
2023-05-23T20:02:35.208Z,3.30
2023-05-23T20:20:25.077Z,3.73
2023-05-23T20:25:29.669Z,3.40
2023-05-23T20:30:54.009Z,3.70
2023-05-23T20:35:56.518Z,2.53
2023-05-23T20:41:01.568Z,3.53
2023-05-23T20:47:16.918Z,3.13
2023-05-23T20:52:26.061Z,3.38
2023-05-23T20:57:28.380Z,3.10
2023-05-23T21:02:34.220Z,3.13
2023-05-23T21:07:39.100Z,3.35
2023-05-23T21:12:47.015Z,2.90
2023-05-23T21:17:53.869Z,3.07
2023-05-23T21:22:58.147Z,2.80
2023-05-23T21:28:02.966Z,2.90
2023-05-23T21:33:05.025Z,3.03
2023-05-23T21:38:09.207Z,2.75
2023-05-23T21:43:10.990Z,2.80
2023-05-23T21:48:12.799Z,2.33
2023-05-23T21:53:15.010Z,3.00
2023-05-23T21:58:16.878Z,3.17
2023-05-23T22:08:33.129Z,2.85
2023-05-23T22:13:34.871Z,2.73
2023-05-23T22:18:50.947Z,3.20
2023-05-23T22:23:53.834Z,3.33
2023-05-23T22:28:56.012Z,3.30
2023-05-23T22:33:57.795Z,2.75
2023-05-23T22:39:02.163Z,3.20
2023-05-23T22:44:03.976Z,2.50
2023-05-23T22:49:05.697Z,3.45
2023-05-23T22:54:07.510Z,2.88
2023-05-23T22:59:09.272Z,3.30
2023-05-23T23:04:11.040Z,2.53
2023-05-23T23:09:12.808Z,2.80
2023-05-23T23:14:14.897Z,3.05
2023-05-23T23:19:19.759Z,3.03
2023-05-23T23:24:21.512Z,2.53
2023-05-23T23:29:23.620Z,3.37
2023-05-23T23:34:26.239Z,3.25
2023-05-23T23:39:27.963Z,3.45
2023-05-23T23:44:29.918Z,3.33
2023-05-23T23:49:31.686Z,3.08
2023-05-23T23:54:33.413Z,4.00
2023-05-23T23:59:35.196Z,3.30
